Portada
METAR-TAF:

METAR-TAF

Aeroports :

Sevilla, Espanya

latitud: 37-25N, longitud: 005-54W, altitud: 34 m

Observació

L'informe es va fer fa 24 minuts, a les 21:00 UTC
Vent 9 kt del Oest, variant entre Sud-Oest i Oest/Nord-Oest
Temperatura 12°C
Humitat 76%
Pressió 1019 hPa
Visibilitat 10 km o més
Núvols disperses a una alçada de 4200 ft

METAR: LEZL 222100Z 26009KT 230V290 9999 SCT042 12/08 Q1019 NOSIG

Hora: 22:24 (21:24 UTC)

Pronòstic

L'informe es va fer fa 1 hora i 24 minuts, a les 20:00 UTC
Pronòstic vàlid del 22 a les 21 UTC al 23 a les 21 UTC
Vent 9 kt del Oest
Visibilitat 10 km o més
Núvols disperses a una alçada de 3500 ft
Probabilitat 40% :
Temporalment
l' 23 a les 11 UTC al 23 a les 17 UTC
Vent 15 kt del Oest/Nord-Oest amb ràfegues de 25 kt

TAF: LEZL 222000Z 2221/2321 27009KT 9999 SCT035 TX18/2315Z TN06/2307Z PROB40 TEMPO 2311/2317 30015G25KT

Observacions i pronòstics meteorològics de més de 4000 aeroports (METAR i TAF).

Les estacions disponibles són els punts grocs i vermells al mapa.

Posi el ratolí al punt desitjat per veure el nom de l'estació.

Feu clic per veure les observacions i els pronòstics meteorològics.

Per canviar el mapa: feu clic els botons verds amb una creu de color negre per apropar; al botó verd amb un guió per allunyar la imatge; o en les fletxes verdes per a mapes adjacents.


METAR-TAF: